sensor_id;sensor_type;location;lat;lon;timestamp;P1;durP1;ratioP1;P2;durP2;ratioP2
47958;SDS011;33718;50.910;-1.514;2023-03-14T00:00:46;26.60;;;3.42;;
47958;SDS011;33718;50.910;-1.514;2023-03-14T00:03:01;26.58;;;3.80;;
47958;SDS011;33718;50.910;-1.514;2023-03-14T00:05:17;21.67;;;3.50;;
47958;SDS011;33718;50.910;-1.514;2023-03-14T00:07:28;29.67;;;3.10;;
47958;SDS011;33718;50.910;-1.514;2023-03-14T00:09:37;25.85;;;3.35;;
47958;SDS011;33718;50.910;-1.514;2023-03-14T00:11:45;29.55;;;4.70;;
47958;SDS011;33718;50.910;-1.514;2023-03-14T00:13:51;25.42;;;3.78;;
47958;SDS011;33718;50.910;-1.514;2023-03-14T00:15:55;24.10;;;2.92;;
47958;SDS011;33718;50.910;-1.514;2023-03-14T00:18:07;23.00;;;2.83;;
47958;SDS011;33718;50.910;-1.514;2023-03-14T00:20:13;20.45;;;3.60;;
47958;SDS011;33718;50.910;-1.514;2023-03-14T00:22:27;21.50;;;2.92;;
47958;SDS011;33718;50.910;-1.514;2023-03-14T00:24:37;14.93;;;2.38;;
47958;SDS011;33718;50.910;-1.514;2023-03-14T00:26:47;26.55;;;4.72;;
47958;SDS011;33718;50.910;-1.514;2023-03-14T00:28:58;24.33;;;3.03;;
47958;SDS011;33718;50.910;-1.514;2023-03-14T00:31:07;26.65;;;2.60;;
47958;SDS011;33718;50.910;-1.514;2023-03-14T00:33:18;7.55;;;1.52;;
47958;SDS011;33718;50.910;-1.514;2023-03-14T00:35:22;5.60;;;0.70;;
47958;SDS011;33718;50.910;-1.514;2023-03-14T00:37:27;3.97;;;0.63;;
47958;SDS011;33718;50.910;-1.514;2023-03-14T00:39:28;2.85;;;0.60;;
47958;SDS011;33718;50.910;-1.514;2023-03-14T00:41:30;1.90;;;0.22;;
47958;SDS011;33718;50.910;-1.514;2023-03-14T00:43:31;2.97;;;0.38;;
47958;SDS011;33718;50.910;-1.514;2023-03-14T00:45:33;2.13;;;0.20;;
47958;SDS011;33718;50.910;-1.514;2023-03-14T00:47:39;0.75;;;0.20;;
47958;SDS011;33718;50.910;-1.514;2023-03-14T00:49:40;0.68;;;0.10;;
47958;SDS011;33718;50.910;-1.514;2023-03-14T00:51:44;0.20;;;0.10;;
47958;SDS011;33718;50.910;-1.514;2023-03-14T00:55:53;0.95;;;0.10;;
47958;SDS011;33718;50.910;-1.514;2023-03-14T00:57:57;1.92;;;0.20;;
47958;SDS011;33718;50.910;-1.514;2023-03-14T01:00:17;1.70;;;0.10;;
47958;SDS011;33718;50.910;-1.514;2023-03-14T01:02:22;0.20;;;0.10;;
47958;SDS011;33718;50.910;-1.514;2023-03-14T01:04:26;0.30;;;0.20;;
47958;SDS011;33718;50.910;-1.514;2023-03-14T01:06:28;0.10;;;0.10;;
47958;SDS011;33718;50.910;-1.514;2023-03-14T01:08:30;0.15;;;0.10;;
47958;SDS011;33718;50.910;-1.514;2023-03-14T01:10:32;0.77;;;0.20;;
47958;SDS011;33718;50.910;-1.514;2023-03-14T01:12:36;0.70;;;0.20;;
47958;SDS011;33718;50.910;-1.514;2023-03-14T01:14:40;3.50;;;0.40;;
47958;SDS011;33718;50.910;-1.514;2023-03-14T01:16:42;2.00;;;0.30;;
47958;SDS011;33718;50.910;-1.514;2023-03-14T01:18:44;3.15;;;0.22;;
47958;SDS011;33718;50.910;-1.514;2023-03-14T01:20:45;0.57;;;0.13;;
47958;SDS011;33718;50.910;-1.514;2023-03-14T01:24:54;1.17;;;0.57;;
47958;SDS011;33718;50.910;-1.514;2023-03-14T01:26:56;5.30;;;0.50;;
47958;SDS011;33718;50.910;-1.514;2023-03-14T01:28:57;3.28;;;0.75;;
47958;SDS011;33718;50.910;-1.514;2023-03-14T01:31:05;1.35;;;0.22;;
47958;SDS011;33718;50.910;-1.514;2023-03-14T01:33:07;1.23;;;0.43;;
47958;SDS011;33718;50.910;-1.514;2023-03-14T01:35:09;1.98;;;1.48;;
47958;SDS011;33718;50.910;-1.514;2023-03-14T01:37:29;2.97;;;0.50;;
47958;SDS011;33718;50.910;-1.514;2023-03-14T01:39:33;1.05;;;0.57;;
47958;SDS011;33718;50.910;-1.514;2023-03-14T01:41:34;7.07;;;0.98;;
47958;SDS011;33718;50.910;-1.514;2023-03-14T01:43:39;2.85;;;0.60;;
47958;SDS011;33718;50.910;-1.514;2023-03-14T01:48:03;6.53;;;0.60;;
47958;SDS011;33718;50.910;-1.514;2023-03-14T01:50:06;2.35;;;0.70;;
47958;SDS011;33718;50.910;-1.514;2023-03-14T01:52:10;3.03;;;0.60;;
47958;SDS011;33718;50.910;-1.514;2023-03-14T01:54:27;1.67;;;0.50;;
47958;SDS011;33718;50.910;-1.514;2023-03-14T01:56:32;10.32;;;1.08;;
47958;SDS011;33718;50.910;-1.514;2023-03-14T01:58:34;3.50;;;0.70;;
47958;SDS011;33718;50.910;-1.514;2023-03-14T02:00:36;6.10;;;1.38;;
47958;SDS011;33718;50.910;-1.514;2023-03-14T02:02:41;3.47;;;0.65;;
47958;SDS011;33718;50.910;-1.514;2023-03-14T02:04:44;3.47;;;0.93;;
47958;SDS011;33718;50.910;-1.514;2023-03-14T02:06:57;5.63;;;0.80;;
47958;SDS011;33718;50.910;-1.514;2023-03-14T02:09:00;9.48;;;2.22;;
47958;SDS011;33718;50.910;-1.514;2023-03-14T02:11:02;7.97;;;1.23;;
47958;SDS011;33718;50.910;-1.514;2023-03-14T02:13:05;2.95;;;0.70;;
47958;SDS011;33718;50.910;-1.514;2023-03-14T02:15:07;7.47;;;0.80;;
47958;SDS011;33718;50.910;-1.514;2023-03-14T02:17:09;8.15;;;0.95;;
47958;SDS011;33718;50.910;-1.514;2023-03-14T02:19:11;3.72;;;0.70;;
47958;SDS011;33718;50.910;-1.514;2023-03-14T02:26:06;2.75;;;0.70;;
47958;SDS011;33718;50.910;-1.514;2023-03-14T02:28:10;7.50;;;0.90;;
47958;SDS011;33718;50.910;-1.514;2023-03-14T02:30:13;4.35;;;0.82;;
47958;SDS011;33718;50.910;-1.514;2023-03-14T02:32:19;9.63;;;1.27;;
47958;SDS011;33718;50.910;-1.514;2023-03-14T02:34:21;5.47;;;1.00;;
47958;SDS011;33718;50.910;-1.514;2023-03-14T02:36:26;4.70;;;1.00;;
47958;SDS011;33718;50.910;-1.514;2023-03-14T02:38:40;6.40;;;0.70;;
47958;SDS011;33718;50.910;-1.514;2023-03-14T02:41:01;8.48;;;1.45;;
47958;SDS011;33718;50.910;-1.514;2023-03-14T02:43:03;11.65;;;2.47;;
47958;SDS011;33718;50.910;-1.514;2023-03-14T02:47:11;9.32;;;1.65;;
47958;SDS011;33718;50.910;-1.514;2023-03-14T02:49:13;6.97;;;1.30;;
47958;SDS011;33718;50.910;-1.514;2023-03-14T02:51:21;7.05;;;1.45;;
47958;SDS011;33718;50.910;-1.514;2023-03-14T02:53:24;3.97;;;0.75;;
47958;SDS011;33718;50.910;-1.514;2023-03-14T02:55:26;5.88;;;0.63;;
47958;SDS011;33718;50.910;-1.514;2023-03-14T02:57:28;9.30;;;1.52;;
47958;SDS011;33718;50.910;-1.514;2023-03-14T02:59:31;6.05;;;0.90;;
47958;SDS011;33718;50.910;-1.514;2023-03-14T03:01:51;14.23;;;2.70;;
47958;SDS011;33718;50.910;-1.514;2023-03-14T03:03:55;5.25;;;1.10;;
47958;SDS011;33718;50.910;-1.514;2023-03-14T03:06:02;7.15;;;2.00;;
47958;SDS011;33718;50.910;-1.514;2023-03-14T03:08:10;8.27;;;0.98;;
47958;SDS011;33718;50.910;-1.514;2023-03-14T03:10:16;7.82;;;1.02;;
47958;SDS011;33718;50.910;-1.514;2023-03-14T03:12:23;6.72;;;0.80;;
47958;SDS011;33718;50.910;-1.514;2023-03-14T03:14:30;5.55;;;0.75;;
47958;SDS011;33718;50.910;-1.514;2023-03-14T03:16:33;3.03;;;0.63;;
47958;SDS011;33718;50.910;-1.514;2023-03-14T03:18:40;3.30;;;1.00;;
47958;SDS011;33718;50.910;-1.514;2023-03-14T03:20:44;7.32;;;1.52;;
47958;SDS011;33718;50.910;-1.514;2023-03-14T03:22:48;4.75;;;0.85;;
47958;SDS011;33718;50.910;-1.514;2023-03-14T03:24:55;9.60;;;1.85;;
47958;SDS011;33718;50.910;-1.514;2023-03-14T03:27:01;6.68;;;0.93;;
47958;SDS011;33718;50.910;-1.514;2023-03-14T03:29:05;3.13;;;0.60;;
47958;SDS011;33718;50.910;-1.514;2023-03-14T03:31:09;3.38;;;1.08;;
47958;SDS011;33718;50.910;-1.514;2023-03-14T03:33:13;9.50;;;1.40;;
47958;SDS011;33718;50.910;-1.514;2023-03-14T03:35:19;5.30;;;1.02;;
47958;SDS011;33718;50.910;-1.514;2023-03-14T03:37:39;6.03;;;0.93;;
47958;SDS011;33718;50.910;-1.514;2023-03-14T03:39:41;10.07;;;1.17;;
47958;SDS011;33718;50.910;-1.514;2023-03-14T03:42:01;10.48;;;1.10;;
47958;SDS011;33718;50.910;-1.514;2023-03-14T03:44:02;10.35;;;1.35;;
47958;SDS011;33718;50.910;-1.514;2023-03-14T03:46:07;7.45;;;1.27;;
47958;SDS011;33718;50.910;-1.514;2023-03-14T03:48:08;7.57;;;1.35;;
47958;SDS011;33718;50.910;-1.514;2023-03-14T03:50:28;13.57;;;1.75;;
47958;SDS011;33718;50.910;-1.514;2023-03-14T03:52:30;9.13;;;1.15;;
47958;SDS011;33718;50.910;-1.514;2023-03-14T03:54:31;9.75;;;1.75;;
47958;SDS011;33718;50.910;-1.514;2023-03-14T03:56:33;11.32;;;1.00;;
47958;SDS011;33718;50.910;-1.514;2023-03-14T03:58:37;6.80;;;1.20;;
47958;SDS011;33718;50.910;-1.514;2023-03-14T04:00:40;6.70;;;1.23;;
47958;SDS011;33718;50.910;-1.514;2023-03-14T04:02:44;8.55;;;1.60;;
47958;SDS011;33718;50.910;-1.514;2023-03-14T04:04:49;10.82;;;1.70;;
47958;SDS011;33718;50.910;-1.514;2023-03-14T04:06:50;8.13;;;1.38;;
47958;SDS011;33718;50.910;-1.514;2023-03-14T04:08:53;10.07;;;1.45;;
47958;SDS011;33718;50.910;-1.514;2023-03-14T04:10:58;10.98;;;0.98;;
47958;SDS011;33718;50.910;-1.514;2023-03-14T04:13:00;4.03;;;0.98;;
47958;SDS011;33718;50.910;-1.514;2023-03-14T04:15:01;7.10;;;1.38;;
47958;SDS011;33718;50.910;-1.514;2023-03-14T04:17:05;10.02;;;2.95;;
47958;SDS011;33718;50.910;-1.514;2023-03-14T04:21:14;4.97;;;1.40;;
47958;SDS011;33718;50.910;-1.514;2023-03-14T04:23:18;10.60;;;1.17;;
47958;SDS011;33718;50.910;-1.514;2023-03-14T04:27:43;6.95;;;0.98;;
47958;SDS011;33718;50.910;-1.514;2023-03-14T04:30:03;8.88;;;1.60;;
47958;SDS011;33718;50.910;-1.514;2023-03-14T04:32:05;11.68;;;1.63;;
47958;SDS011;33718;50.910;-1.514;2023-03-14T04:34:25;8.70;;;2.97;;
47958;SDS011;33718;50.910;-1.514;2023-03-14T04:36:27;8.90;;;1.48;;
47958;SDS011;33718;50.910;-1.514;2023-03-14T04:38:28;9.38;;;1.45;;
47958;SDS011;33718;50.910;-1.514;2023-03-14T04:42:34;10.25;;;1.40;;
47958;SDS011;33718;50.910;-1.514;2023-03-14T04:44:35;6.65;;;1.42;;
47958;SDS011;33718;50.910;-1.514;2023-03-14T04:46:37;12.60;;;1.88;;
47958;SDS011;33718;50.910;-1.514;2023-03-14T04:48:41;7.72;;;2.15;;
47958;SDS011;33718;50.910;-1.514;2023-03-14T04:51:01;17.50;;;1.60;;
47958;SDS011;33718;50.910;-1.514;2023-03-14T04:53:03;7.25;;;1.73;;
47958;SDS011;33718;50.910;-1.514;2023-03-14T04:55:05;6.40;;;1.38;;
47958;SDS011;33718;50.910;-1.514;2023-03-14T04:57:06;15.10;;;2.08;;
47958;SDS011;33718;50.910;-1.514;2023-03-14T04:59:08;6.95;;;1.23;;
47958;SDS011;33718;50.910;-1.514;2023-03-14T05:01:10;10.77;;;1.58;;
47958;SDS011;33718;50.910;-1.514;2023-03-14T05:03:14;13.40;;;1.27;;
47958;SDS011;33718;50.910;-1.514;2023-03-14T05:05:19;13.60;;;3.47;;
47958;SDS011;33718;50.910;-1.514;2023-03-14T05:07:23;13.30;;;2.97;;
47958;SDS011;33718;50.910;-1.514;2023-03-14T05:09:24;25.55;;;3.00;;
47958;SDS011;33718;50.910;-1.514;2023-03-14T05:11:29;12.93;;;1.95;;
47958;SDS011;33718;50.910;-1.514;2023-03-14T05:15:53;6.90;;;1.15;;
47958;SDS011;33718;50.910;-1.514;2023-03-14T05:17:59;12.35;;;3.22;;
47958;SDS011;33718;50.910;-1.514;2023-03-14T05:20:03;7.18;;;1.33;;
47958;SDS011;33718;50.910;-1.514;2023-03-14T05:22:33;12.40;;;1.30;;
47958;SDS011;33718;50.910;-1.514;2023-03-14T05:24:34;9.80;;;1.67;;
47958;SDS011;33718;50.910;-1.514;2023-03-14T05:26:36;11.90;;;1.40;;
47958;SDS011;33718;50.910;-1.514;2023-03-14T05:28:37;7.15;;;1.52;;
47958;SDS011;33718;50.910;-1.514;2023-03-14T05:30:57;6.95;;;1.50;;
47958;SDS011;33718;50.910;-1.514;2023-03-14T05:33:01;15.00;;;1.65;;
47958;SDS011;33718;50.910;-1.514;2023-03-14T05:35:03;13.73;;;1.05;;
47958;SDS011;33718;50.910;-1.514;2023-03-14T05:37:07;10.75;;;1.27;;
47958;SDS011;33718;50.910;-1.514;2023-03-14T05:39:09;5.55;;;1.13;;
47958;SDS011;33718;50.910;-1.514;2023-03-14T05:41:10;13.98;;;1.63;;
47958;SDS011;33718;50.910;-1.514;2023-03-14T05:43:12;10.23;;;1.65;;
47958;SDS011;33718;50.910;-1.514;2023-03-14T05:45:14;15.70;;;3.10;;
47958;SDS011;33718;50.910;-1.514;2023-03-14T05:47:16;10.07;;;1.42;;
47958;SDS011;33718;50.910;-1.514;2023-03-14T05:49:17;9.55;;;1.50;;
47958;SDS011;33718;50.910;-1.514;2023-03-14T05:53:23;8.55;;;1.33;;
47958;SDS011;33718;50.910;-1.514;2023-03-14T05:55:24;10.60;;;2.08;;
47958;SDS011;33718;50.910;-1.514;2023-03-14T05:59:33;16.98;;;2.00;;
47958;SDS011;33718;50.910;-1.514;2023-03-14T06:01:34;6.05;;;1.33;;
47958;SDS011;33718;50.910;-1.514;2023-03-14T06:03:36;7.25;;;1.42;;
47958;SDS011;33718;50.910;-1.514;2023-03-14T06:07:47;10.75;;;1.83;;
47958;SDS011;33718;50.910;-1.514;2023-03-14T06:10:02;7.38;;;1.95;;
47958;SDS011;33718;50.910;-1.514;2023-03-14T06:14:12;10.13;;;1.50;;
47958;SDS011;33718;50.910;-1.514;2023-03-14T06:16:19;10.65;;;3.08;;
47958;SDS011;33718;50.910;-1.514;2023-03-14T06:18:41;12.80;;;2.60;;
47958;SDS011;33718;50.910;-1.514;2023-03-14T06:20:47;13.27;;;1.70;;
47958;SDS011;33718;50.910;-1.514;2023-03-14T06:22:57;13.43;;;1.83;;
47958;SDS011;33718;50.910;-1.514;2023-03-14T06:25:02;13.70;;;1.70;;
47958;SDS011;33718;50.910;-1.514;2023-03-14T06:29:09;10.27;;;1.67;;
47958;SDS011;33718;50.910;-1.514;2023-03-14T06:31:14;14.48;;;3.63;;
47958;SDS011;33718;50.910;-1.514;2023-03-14T06:33:21;7.32;;;1.80;;
47958;SDS011;33718;50.910;-1.514;2023-03-14T06:35:23;14.43;;;2.00;;
47958;SDS011;33718;50.910;-1.514;2023-03-14T06:37:30;8.02;;;1.45;;
47958;SDS011;33718;50.910;-1.514;2023-03-14T06:39:40;11.60;;;2.33;;
47958;SDS011;33718;50.910;-1.514;2023-03-14T06:41:45;13.68;;;2.28;;
47958;SDS011;33718;50.910;-1.514;2023-03-14T06:43:49;10.85;;;3.13;;
47958;SDS011;33718;50.910;-1.514;2023-03-14T06:45:57;8.43;;;1.65;;
47958;SDS011;33718;50.910;-1.514;2023-03-14T06:48:02;3.67;;;1.63;;
47958;SDS011;33718;50.910;-1.514;2023-03-14T06:50:04;17.40;;;1.83;;
47958;SDS011;33718;50.910;-1.514;2023-03-14T06:52:09;11.52;;;1.25;;
47958;SDS011;33718;50.910;-1.514;2023-03-14T06:54:10;8.70;;;1.88;;
47958;SDS011;33718;50.910;-1.514;2023-03-14T06:56:12;12.23;;;2.00;;
47958;SDS011;33718;50.910;-1.514;2023-03-14T06:58:16;8.68;;;1.75;;
47958;SDS011;33718;50.910;-1.514;2023-03-14T07:00:37;14.00;;;1.23;;
47958;SDS011;33718;50.910;-1.514;2023-03-14T07:02:41;4.65;;;1.63;;
47958;SDS011;33718;50.910;-1.514;2023-03-14T07:04:43;8.65;;;1.90;;
47958;SDS011;33718;50.910;-1.514;2023-03-14T07:06:45;13.82;;;1.63;;
47958;SDS011;33718;50.910;-1.514;2023-03-14T07:08:50;13.73;;;1.83;;
47958;SDS011;33718;50.910;-1.514;2023-03-14T07:10:51;15.55;;;1.40;;
47958;SDS011;33718;50.910;-1.514;2023-03-14T07:12:53;9.50;;;1.85;;
47958;SDS011;33718;50.910;-1.514;2023-03-14T07:14:55;12.30;;;2.35;;
47958;SDS011;33718;50.910;-1.514;2023-03-14T07:17:17;9.38;;;1.13;;
47958;SDS011;33718;50.910;-1.514;2023-03-14T07:19:37;7.78;;;1.30;;
47958;SDS011;33718;50.910;-1.514;2023-03-14T07:21:42;9.52;;;2.88;;
47958;SDS011;33718;50.910;-1.514;2023-03-14T07:23:46;13.85;;;2.15;;
47958;SDS011;33718;50.910;-1.514;2023-03-14T07:25:47;16.42;;;1.83;;
47958;SDS011;33718;50.910;-1.514;2023-03-14T07:27:49;5.63;;;1.30;;
47958;SDS011;33718;50.910;-1.514;2023-03-14T07:31:57;8.20;;;1.35;;
47958;SDS011;33718;50.910;-1.514;2023-03-14T07:34:02;21.60;;;2.53;;
47958;SDS011;33718;50.910;-1.514;2023-03-14T07:36:04;12.52;;;2.17;;
47958;SDS011;33718;50.910;-1.514;2023-03-14T07:38:09;6.57;;;1.55;;
47958;SDS011;33718;50.910;-1.514;2023-03-14T07:40:13;12.35;;;2.08;;
47958;SDS011;33718;50.910;-1.514;2023-03-14T07:42:19;11.95;;;1.45;;
47958;SDS011;33718;50.910;-1.514;2023-03-14T07:44:20;9.98;;;1.42;;
47958;SDS011;33718;50.910;-1.514;2023-03-14T07:46:25;15.95;;;2.47;;
47958;SDS011;33718;50.910;-1.514;2023-03-14T07:48:26;8.68;;;2.20;;
47958;SDS011;33718;50.910;-1.514;2023-03-14T07:50:31;5.00;;;1.00;;
47958;SDS011;33718;50.910;-1.514;2023-03-14T07:52:33;9.80;;;1.25;;
47958;SDS011;33718;50.910;-1.514;2023-03-14T07:54:37;5.40;;;1.63;;
47958;SDS011;33718;50.910;-1.514;2023-03-14T07:56:38;6.07;;;1.23;;
47958;SDS011;33718;50.910;-1.514;2023-03-14T07:58:42;7.70;;;1.27;;
47958;SDS011;33718;50.910;-1.514;2023-03-14T08:00:44;6.22;;;0.93;;
47958;SDS011;33718;50.910;-1.514;2023-03-14T08:02:45;7.60;;;1.02;;
47958;SDS011;33718;50.910;-1.514;2023-03-14T08:04:50;6.80;;;1.13;;
47958;SDS011;33718;50.910;-1.514;2023-03-14T08:06:51;7.10;;;1.33;;
47958;SDS011;33718;50.910;-1.514;2023-03-14T08:08:54;11.48;;;1.58;;
47958;SDS011;33718;50.910;-1.514;2023-03-14T08:10:55;6.57;;;1.15;;
47958;SDS011;33718;50.910;-1.514;2023-03-14T08:13:02;8.43;;;1.20;;
47958;SDS011;33718;50.910;-1.514;2023-03-14T08:15:04;7.65;;;1.90;;
47958;SDS011;33718;50.910;-1.514;2023-03-14T08:17:06;8.13;;;1.90;;
47958;SDS011;33718;50.910;-1.514;2023-03-14T08:19:12;11.50;;;1.60;;
47958;SDS011;33718;50.910;-1.514;2023-03-14T08:21:16;6.30;;;1.20;;
47958;SDS011;33718;50.910;-1.514;2023-03-14T08:23:17;8.90;;;1.27;;
47958;SDS011;33718;50.910;-1.514;2023-03-14T08:25:22;10.15;;;1.75;;
47958;SDS011;33718;50.910;-1.514;2023-03-14T08:27:26;7.70;;;1.15;;
47958;SDS011;33718;50.910;-1.514;2023-03-14T08:29:28;7.70;;;1.70;;
47958;SDS011;33718;50.910;-1.514;2023-03-14T08:31:32;7.20;;;1.20;;
47958;SDS011;33718;50.910;-1.514;2023-03-14T08:33:34;9.52;;;1.15;;
47958;SDS011;33718;50.910;-1.514;2023-03-14T08:35:37;8.25;;;1.30;;
47958;SDS011;33718;50.910;-1.514;2023-03-14T08:37:41;4.97;;;0.90;;
47958;SDS011;33718;50.910;-1.514;2023-03-14T08:39:45;5.60;;;1.15;;
47958;SDS011;33718;50.910;-1.514;2023-03-14T08:41:50;7.50;;;1.15;;
47958;SDS011;33718;50.910;-1.514;2023-03-14T08:43:54;14.07;;;1.45;;
47958;SDS011;33718;50.910;-1.514;2023-03-14T08:45:57;9.00;;;1.13;;
47958;SDS011;33718;50.910;-1.514;2023-03-14T08:48:17;9.10;;;1.30;;
47958;SDS011;33718;50.910;-1.514;2023-03-14T08:50:20;4.35;;;1.17;;
47958;SDS011;33718;50.910;-1.514;2023-03-14T08:52:22;8.00;;;1.10;;
47958;SDS011;33718;50.910;-1.514;2023-03-14T08:54:23;6.57;;;1.27;;
47958;SDS011;33718;50.910;-1.514;2023-03-14T08:58:32;6.50;;;0.85;;
47958;SDS011;33718;50.910;-1.514;2023-03-14T09:00:36;7.07;;;1.50;;
47958;SDS011;33718;50.910;-1.514;2023-03-14T09:02:38;11.25;;;1.35;;
47958;SDS011;33718;50.910;-1.514;2023-03-14T09:04:42;4.43;;;1.10;;
47958;SDS011;33718;50.910;-1.514;2023-03-14T09:06:47;5.35;;;0.85;;
47958;SDS011;33718;50.910;-1.514;2023-03-14T09:08:51;7.28;;;1.42;;
47958;SDS011;33718;50.910;-1.514;2023-03-14T09:10:53;5.20;;;1.40;;
47958;SDS011;33718;50.910;-1.514;2023-03-14T09:12:59;10.90;;;1.00;;
47958;SDS011;33718;50.910;-1.514;2023-03-14T09:15:06;8.88;;;1.08;;
47958;SDS011;33718;50.910;-1.514;2023-03-14T09:17:12;5.07;;;0.85;;
47958;SDS011;33718;50.910;-1.514;2023-03-14T09:19:14;7.78;;;1.98;;
47958;SDS011;33718;50.910;-1.514;2023-03-14T09:21:20;1.98;;;0.50;;
47958;SDS011;33718;50.910;-1.514;2023-03-14T09:23:25;3.38;;;0.60;;
47958;SDS011;33718;50.910;-1.514;2023-03-14T09:25:31;3.78;;;0.75;;
47958;SDS011;33718;50.910;-1.514;2023-03-14T09:27:35;2.38;;;0.73;;
47958;SDS011;33718;50.910;-1.514;2023-03-14T09:31:41;3.08;;;0.95;;
47958;SDS011;33718;50.910;-1.514;2023-03-14T09:33:42;5.80;;;1.10;;
47958;SDS011;33718;50.910;-1.514;2023-03-14T09:36:05;2.47;;;0.50;;
47958;SDS011;33718;50.910;-1.514;2023-03-14T09:38:09;2.05;;;0.38;;
47958;SDS011;33718;50.910;-1.514;2023-03-14T09:40:15;1.42;;;0.50;;
47958;SDS011;33718;50.910;-1.514;2023-03-14T09:42:21;2.70;;;0.30;;
47958;SDS011;33718;50.910;-1.514;2023-03-14T09:44:50;0.57;;;0.45;;
47958;SDS011;33718;50.910;-1.514;2023-03-14T09:46:57;3.03;;;0.90;;
47958;SDS011;33718;50.910;-1.514;2023-03-14T09:49:02;2.05;;;0.38;;
47958;SDS011;33718;50.910;-1.514;2023-03-14T09:51:11;1.67;;;0.50;;
47958;SDS011;33718;50.910;-1.514;2023-03-14T09:53:17;2.55;;;0.93;;
47958;SDS011;33718;50.910;-1.514;2023-03-14T09:55:20;3.33;;;1.00;;
47958;SDS011;33718;50.910;-1.514;2023-03-14T09:57:26;2.05;;;0.40;;
47958;SDS011;33718;50.910;-1.514;2023-03-14T09:59:28;3.78;;;0.40;;
47958;SDS011;33718;50.910;-1.514;2023-03-14T10:01:31;2.33;;;0.70;;
47958;SDS011;33718;50.910;-1.514;2023-03-14T10:03:34;7.63;;;0.70;;
47958;SDS011;33718;50.910;-1.514;2023-03-14T10:05:36;5.70;;;0.93;;
47958;SDS011;33718;50.910;-1.514;2023-03-14T10:07:37;7.55;;;1.00;;
47958;SDS011;33718;50.910;-1.514;2023-03-14T10:09:43;2.00;;;0.40;;
47958;SDS011;33718;50.910;-1.514;2023-03-14T10:11:47;5.20;;;0.73;;
47958;SDS011;33718;50.910;-1.514;2023-03-14T10:14:09;2.58;;;0.50;;
47958;SDS011;33718;50.910;-1.514;2023-03-14T10:16:14;2.08;;;0.40;;
47958;SDS011;33718;50.910;-1.514;2023-03-14T10:18:15;2.63;;;0.70;;
47958;SDS011;33718;50.910;-1.514;2023-03-14T10:22:34;1.48;;;0.50;;
47958;SDS011;33718;50.910;-1.514;2023-03-14T10:24:36;1.13;;;0.20;;
47958;SDS011;33718;50.910;-1.514;2023-03-14T10:26:40;3.60;;;0.60;;
47958;SDS011;33718;50.910;-1.514;2023-03-14T10:28:51;2.47;;;0.40;;
47958;SDS011;33718;50.910;-1.514;2023-03-14T10:30:53;0.47;;;0.30;;
47958;SDS011;33718;50.910;-1.514;2023-03-14T10:32:55;0.28;;;0.22;;
47958;SDS011;33718;50.910;-1.514;2023-03-14T10:35:19;0.70;;;0.10;;
47958;SDS011;33718;50.910;-1.514;2023-03-14T10:37:21;0.98;;;0.17;;
47958;SDS011;33718;50.910;-1.514;2023-03-14T10:42:12;0.30;;;0.20;;
47958;SDS011;33718;50.910;-1.514;2023-03-14T10:44:14;0.63;;;0.20;;
47958;SDS011;33718;50.910;-1.514;2023-03-14T10:46:18;0.35;;;0.20;;
47958;SDS011;33718;50.910;-1.514;2023-03-14T10:48:39;1.08;;;0.28;;
47958;SDS011;33718;50.910;-1.514;2023-03-14T10:51:02;0.15;;;0.15;;
47958;SDS011;33718;50.910;-1.514;2023-03-14T10:53:04;1.00;;;0.28;;
47958;SDS011;33718;50.910;-1.514;2023-03-14T10:55:10;1.15;;;0.20;;
47958;SDS011;33718;50.910;-1.514;2023-03-14T10:57:12;0.75;;;0.60;;
47958;SDS011;33718;50.910;-1.514;2023-03-14T10:59:14;3.03;;;0.35;;
47958;SDS011;33718;50.910;-1.514;2023-03-14T11:03:28;0.70;;;0.30;;
47958;SDS011;33718;50.910;-1.514;2023-03-14T11:05:34;1.08;;;0.20;;
47958;SDS011;33718;50.910;-1.514;2023-03-14T11:07:43;1.77;;;0.40;;
47958;SDS011;33718;50.910;-1.514;2023-03-14T11:22:50;5.18;;;0.93;;
47958;SDS011;33718;50.910;-1.514;2023-03-14T11:27:15;6.15;;;0.80;;
47958;SDS011;33718;50.910;-1.514;2023-03-14T11:29:40;2.95;;;0.70;;
47958;SDS011;33718;50.910;-1.514;2023-03-14T11:31:42;4.50;;;1.17;;
47958;SDS011;33718;50.910;-1.514;2023-03-14T11:33:56;3.93;;;0.73;;
47958;SDS011;33718;50.910;-1.514;2023-03-14T11:36:07;2.03;;;0.55;;
47958;SDS011;33718;50.910;-1.514;2023-03-14T11:40:50;4.80;;;0.80;;
47958;SDS011;33718;50.910;-1.514;2023-03-14T11:43:13;2.05;;;0.60;;
47958;SDS011;33718;50.910;-1.514;2023-03-14T11:45:20;3.35;;;0.60;;
47958;SDS011;33718;50.910;-1.514;2023-03-14T11:47:30;7.40;;;0.60;;
47958;SDS011;33718;50.910;-1.514;2023-03-14T11:49:51;3.42;;;0.52;;
47958;SDS011;33718;50.910;-1.514;2023-03-14T11:51:59;5.00;;;0.68;;
47958;SDS011;33718;50.910;-1.514;2023-03-14T11:54:12;2.67;;;0.85;;
47958;SDS011;33718;50.910;-1.514;2023-03-14T11:56:18;5.55;;;0.50;;
47958;SDS011;33718;50.910;-1.514;2023-03-14T11:58:27;3.53;;;0.65;;
47958;SDS011;33718;50.910;-1.514;2023-03-14T12:00:30;4.72;;;1.02;;
47958;SDS011;33718;50.910;-1.514;2023-03-14T12:04:49;2.90;;;0.60;;
47958;SDS011;33718;50.910;-1.514;2023-03-14T12:06:53;1.92;;;0.77;;
47958;SDS011;33718;50.910;-1.514;2023-03-14T12:09:01;2.55;;;0.63;;
47958;SDS011;33718;50.910;-1.514;2023-03-14T12:13:09;3.45;;;0.60;;
47958;SDS011;33718;50.910;-1.514;2023-03-14T12:15:31;1.15;;;0.52;;
47958;SDS011;33718;50.910;-1.514;2023-03-14T12:17:41;3.35;;;0.35;;
47958;SDS011;33718;50.910;-1.514;2023-03-14T12:20:31;1.05;;;0.55;;
47958;SDS011;33718;50.910;-1.514;2023-03-14T12:22:28;2.72;;;0.35;;
47958;SDS011;33718;50.910;-1.514;2023-03-14T12:24:36;1.77;;;0.82;;
47958;SDS011;33718;50.910;-1.514;2023-03-14T12:26:50;3.70;;;0.88;;
47958;SDS011;33718;50.910;-1.514;2023-03-14T12:33:27;0.77;;;0.28;;
47958;SDS011;33718;50.910;-1.514;2023-03-14T12:35:34;4.15;;;0.35;;
47958;SDS011;33718;50.910;-1.514;2023-03-14T12:37:43;0.60;;;0.30;;
47958;SDS011;33718;50.910;-1.514;2023-03-14T12:46:33;0.68;;;0.20;;
47958;SDS011;33718;50.910;-1.514;2023-03-14T12:48:37;0.30;;;0.10;;
47958;SDS011;33718;50.910;-1.514;2023-03-14T12:50:56;1.02;;;0.17;;
47958;SDS011;33718;50.910;-1.514;2023-03-14T12:55:18;0.82;;;0.20;;
47958;SDS011;33718;50.910;-1.514;2023-03-14T12:59:56;0.88;;;0.10;;
47958;SDS011;33718;50.910;-1.514;2023-03-14T13:02:10;0.20;;;0.10;;
47958;SDS011;33718;50.910;-1.514;2023-03-14T13:04:16;1.13;;;0.30;;
47958;SDS011;33718;50.910;-1.514;2023-03-14T13:06:52;0.40;;;0.30;;
47958;SDS011;33718;50.910;-1.514;2023-03-14T13:08:55;0.98;;;0.20;;
47958;SDS011;33718;50.910;-1.514;2023-03-14T13:11:01;0.25;;;0.20;;
47958;SDS011;33718;50.910;-1.514;2023-03-14T13:13:23;0.15;;;0.10;;
47958;SDS011;33718;50.910;-1.514;2023-03-14T13:15:32;0.63;;;0.30;;
47958;SDS011;33718;50.910;-1.514;2023-03-14T13:17:37;0.45;;;0.08;;
47958;SDS011;33718;50.910;-1.514;2023-03-14T13:19:43;2.80;;;0.30;;
47958;SDS011;33718;50.910;-1.514;2023-03-14T13:21:51;1.13;;;0.22;;
47958;SDS011;33718;50.910;-1.514;2023-03-14T13:23:59;1.50;;;0.10;;
47958;SDS011;33718;50.910;-1.514;2023-03-14T13:26:19;1.27;;;0.50;;
47958;SDS011;33718;50.910;-1.514;2023-03-14T13:28:40;1.65;;;0.20;;
47958;SDS011;33718;50.910;-1.514;2023-03-14T13:30:46;0.50;;;0.30;;
47958;SDS011;33718;50.910;-1.514;2023-03-14T13:33:06;1.38;;;0.38;;
47958;SDS011;33718;50.910;-1.514;2023-03-14T13:35:18;0.30;;;0.10;;
47958;SDS011;33718;50.910;-1.514;2023-03-14T13:37:25;0.63;;;0.13;;
47958;SDS011;33718;50.910;-1.514;2023-03-14T13:39:27;0.85;;;0.20;;
47958;SDS011;33718;50.910;-1.514;2023-03-14T13:41:30;1.10;;;0.20;;
47958;SDS011;33718;50.910;-1.514;2023-03-14T13:43:50;5.05;;;0.30;;
47958;SDS011;33718;50.910;-1.514;2023-03-14T13:45:56;0.68;;;0.50;;
47958;SDS011;33718;50.910;-1.514;2023-03-14T13:47:58;0.65;;;0.20;;
47958;SDS011;33718;50.910;-1.514;2023-03-14T13:50:02;1.38;;;0.40;;